Hauptseite
METAR-TAF:

METAR-TAF

Flughäfen :

Finkenwerder, Deutschland

Flugplatz Hamburg-Finkenwerder

Breite: 53-32N, Länge: 009-50E, Höhe: 5 m

Beobachtung

Neuester Wetterbericht von vor 20 Minuten, um 11:20 UTC
Wind 9 kt aus West/Nordwest
Temperatur 10°C
Luftfeuchtigkeit 62%
Luftdruck 1031 hPa
Sichtweite 10 km oder mehr
keine Wolken unter 1500 m und keine Kumulonimbus oder Gewitterwolken

METAR: EDHI 251120Z 29009KT CAVOK 10/03 Q1031

Zeit: 12:40 (11:40 UTC)

Prognose

Neuester Wetterbericht von vor 40 Minuten, um 11:00 UTC
Gültige Prognose vom 25 um 12 UTC bis 25 um 21 UTC
Wind 10 kt aus West/Nordwest
Sichtweite 10 km oder mehr
Leicht bewölkt in der Höhe von 2000 ft

TAF: EDHI 251100Z 2512/2521 30010KT 9999 FEW020

Wetterbeobachtungen und Prognosen von mehr als 4000 Flughäfen (METAR und TAF Bericht).

Die verfügbaren Stationen werden durch gelbe und rote Markierungen auf der Karte dargestellt.

Führen Sie die Maus auf sie, um den Namen der Station zu sehen.

Darauf klicken, um die Beobachtung von Wetterbeobachtungen und Prognosen zu sehen.

Um die Karte zu ändern : klicken Sie auf den grünen Tasten mit einem schwarzen Kreuz Zum Vergrößern, auf den grünen Button mit einem Gedankenstrich zu verkleinern, oder auf die grünen Pfeile für benachbarte Karten.


METAR-TAF: